Terminal Aerodrome Forecast
Issued by NWS

Home | Current Version | Previous Version | Text Only | Print | Product List | Glossary Off
Versions: 1 2 3 4 5 6 7 8 9 10 11 12 13 14 15 16 17

000
FTUS43 KGRB 232300
TAFAUW
TAF
KAUW 232325Z 2400/2424 36005KT P6SM SCT050
     FM240900 00000KT 5SM BR SKC
     FM241200 21003KT 6SM BR SKC
     FM241500 24004KT P6SM SCT200=

USA.gov is the U.S. government's official web portal to all federal, state and local government web resources and services.